createdAt,value
2018-11-07T00:00:41.214Z,0.00
2018-11-07T00:01:41.166Z,0.00
2018-11-07T00:02:41.155Z,0.00
2018-11-07T00:03:41.122Z,0.00
2018-11-07T00:04:41.115Z,0.00
2018-11-07T00:05:41.077Z,0.00
2018-11-07T00:06:41.051Z,0.00
2018-11-07T00:07:41.075Z,0.00
2018-11-07T00:08:41.012Z,0.00
2018-11-07T00:09:40.996Z,0.00
2018-11-07T00:10:40.967Z,0.00
2018-11-07T00:11:40.944Z,0.00
2018-11-07T00:12:40.938Z,0.00
2018-11-07T00:13:40.897Z,0.00
2018-11-07T00:14:40.874Z,0.00
2018-11-07T00:15:40.874Z,0.00
2018-11-07T00:16:40.835Z,0.00
2018-11-07T00:17:40.806Z,0.00
2018-11-07T00:18:40.780Z,0.00
2018-11-07T00:19:40.760Z,0.00
2018-11-07T00:20:40.752Z,0.00
2018-11-07T00:21:40.720Z,0.00
2018-11-07T00:22:40.690Z,0.00
2018-11-07T00:23:40.675Z,0.00
2018-11-07T00:24:40.649Z,0.00
2018-11-07T00:25:40.624Z,0.00
2018-11-07T00:26:40.598Z,0.00
2018-11-07T00:27:40.582Z,0.00
2018-11-07T00:28:40.558Z,0.00
2018-11-07T00:29:40.530Z,0.00
2018-11-07T00:30:40.512Z,0.00
2018-11-07T00:31:40.489Z,0.00
2018-11-07T00:32:40.467Z,0.00
2018-11-07T00:33:40.444Z,0.00
2018-11-07T00:34:40.415Z,0.00
2018-11-07T00:35:40.393Z,0.00
2018-11-07T00:36:40.402Z,0.00
2018-11-07T00:37:40.367Z,0.00
2018-11-07T00:38:40.362Z,0.00
2018-11-07T00:39:40.312Z,0.00
2018-11-07T00:40:40.300Z,0.00
2018-11-07T00:41:40.764Z,0.00
2018-11-07T00:42:40.237Z,0.00
2018-11-07T00:43:40.212Z,0.00
2018-11-07T00:44:40.203Z,0.00
2018-11-07T00:45:40.167Z,0.00
2018-11-07T00:46:40.159Z,0.00
2018-11-07T00:47:40.126Z,0.00
2018-11-07T00:48:40.110Z,0.00
2018-11-07T00:49:40.081Z,0.00
2018-11-07T00:50:40.081Z,0.00
2018-11-07T00:51:40.050Z,0.00
2018-11-07T00:52:40.018Z,0.00
2018-11-07T00:53:40.030Z,0.00
2018-11-07T00:54:39.969Z,0.00
2018-11-07T00:55:39.944Z,0.00
2018-11-07T00:56:39.921Z,0.00
2018-11-07T00:57:39.912Z,0.00
2018-11-07T00:58:39.880Z,0.00
2018-11-07T00:59:39.848Z,0.00
2018-11-07T01:00:39.830Z,0.00
2018-11-07T01:01:39.802Z,0.00
2018-11-07T01:02:39.778Z,0.00
2018-11-07T01:03:39.759Z,0.00
2018-11-07T01:04:39.740Z,0.00
2018-11-07T01:05:39.720Z,0.00
2018-11-07T01:06:39.690Z,0.00
2018-11-07T01:07:39.667Z,0.00
2018-11-07T01:08:39.647Z,0.00
2018-11-07T01:09:39.822Z,0.00
2018-11-07T01:10:39.606Z,0.00
2018-11-07T01:11:39.586Z,0.00
2018-11-07T01:12:39.551Z,0.00
2018-11-07T01:13:39.535Z,0.00
2018-11-07T01:14:39.509Z,0.00
2018-11-07T01:15:39.503Z,0.00
2018-11-07T01:16:39.520Z,0.00
2018-11-07T01:17:39.450Z,0.00
2018-11-07T01:18:39.421Z,0.00
2018-11-07T01:19:39.395Z,0.00
2018-11-07T01:20:39.380Z,0.00
2018-11-07T01:21:39.351Z,0.00
2018-11-07T01:22:39.333Z,0.00
2018-11-07T01:23:39.315Z,0.00
2018-11-07T01:24:39.277Z,0.00
2018-11-07T01:25:39.252Z,0.00
2018-11-07T01:26:39.233Z,0.00
2018-11-07T01:27:39.214Z,0.00
2018-11-07T01:28:39.204Z,0.00
2018-11-07T01:29:39.163Z,0.00
2018-11-07T01:30:39.160Z,0.00
2018-11-07T01:31:39.118Z,0.00
2018-11-07T01:32:39.096Z,0.00
2018-11-07T01:33:39.077Z,0.00
2018-11-07T01:34:39.050Z,0.00
2018-11-07T01:35:39.022Z,0.00
2018-11-07T01:36:39.008Z,0.00
2018-11-07T01:37:38.980Z,0.00
2018-11-07T01:38:38.966Z,0.00
2018-11-07T01:39:38.947Z,0.00
2018-11-07T01:40:38.913Z,0.00
2018-11-07T01:41:38.887Z,0.00
2018-11-07T01:42:38.859Z,0.00
2018-11-07T01:43:38.843Z,0.00
2018-11-07T01:44:38.821Z,0.00
2018-11-07T01:45:38.802Z,0.00
2018-11-07T01:46:38.770Z,0.00
2018-11-07T01:47:38.753Z,0.00
2018-11-07T01:48:38.731Z,0.00
2018-11-07T01:49:38.702Z,0.00
2018-11-07T01:50:38.680Z,0.00
2018-11-07T01:51:38.657Z,0.00
2018-11-07T01:52:38.644Z,0.00
2018-11-07T01:53:38.612Z,0.00
2018-11-07T01:54:38.593Z,0.00
2018-11-07T01:55:38.568Z,0.00
2018-11-07T01:56:38.541Z,0.00
2018-11-07T01:57:38.548Z,0.00
2018-11-07T01:58:38.500Z,0.00
2018-11-07T01:59:38.491Z,0.00
2018-11-07T02:00:38.472Z,0.00
2018-11-07T02:01:38.441Z,0.00
2018-11-07T02:02:38.416Z,0.00
2018-11-07T02:03:38.388Z,0.00
2018-11-07T02:04:38.371Z,0.00
2018-11-07T02:05:38.349Z,0.00
2018-11-07T02:06:38.330Z,0.00
2018-11-07T02:07:38.301Z,0.00
2018-11-07T02:08:38.285Z,0.00
2018-11-07T02:09:38.264Z,0.00
2018-11-07T02:10:38.234Z,0.00
2018-11-07T02:11:38.220Z,0.00
2018-11-07T02:12:38.195Z,0.00
2018-11-07T02:13:38.176Z,0.00
2018-11-07T02:14:38.151Z,0.00
2018-11-07T02:15:38.137Z,0.00
2018-11-07T02:16:38.109Z,0.00
2018-11-07T02:17:38.090Z,0.00
2018-11-07T02:18:38.072Z,0.00
2018-11-07T02:19:38.047Z,0.00
2018-11-07T02:20:38.022Z,0.00
2018-11-07T02:21:37.996Z,0.00
2018-11-07T02:22:37.984Z,0.00
2018-11-07T02:23:37.962Z,0.00
2018-11-07T02:24:37.938Z,0.00
2018-11-07T02:25:37.910Z,0.00
2018-11-07T02:26:37.894Z,0.00
2018-11-07T02:27:37.881Z,0.00
2018-11-07T02:28:37.851Z,0.00
2018-11-07T02:29:37.842Z,0.00
2018-11-07T02:30:37.800Z,0.00
2018-11-07T02:31:37.787Z,0.00
2018-11-07T02:32:37.761Z,0.00
2018-11-07T02:33:37.739Z,0.00
2018-11-07T02:34:37.723Z,0.00
2018-11-07T02:35:37.697Z,0.00
2018-11-07T02:36:37.679Z,0.00
2018-11-07T02:37:37.659Z,0.00
2018-11-07T02:38:37.631Z,0.00
2018-11-07T02:39:37.612Z,0.00
2018-11-07T02:40:37.590Z,0.00
2018-11-07T02:41:37.591Z,0.00
2018-11-07T02:42:37.548Z,0.00
2018-11-07T02:43:37.522Z,0.00
2018-11-07T02:44:37.497Z,0.00
2018-11-07T02:45:37.477Z,0.00
2018-11-07T02:46:37.462Z,0.00
2018-11-07T02:47:37.443Z,0.00
2018-11-07T02:48:37.414Z,0.00
2018-11-07T02:49:37.391Z,0.00
2018-11-07T02:50:37.385Z,0.00
2018-11-07T02:51:37.349Z,0.00
2018-11-07T02:52:37.326Z,0.00
2018-11-07T02:53:37.320Z,0.00
2018-11-07T02:54:37.292Z,0.00
2018-11-07T02:55:37.260Z,0.00
2018-11-07T02:56:37.247Z,0.00
2018-11-07T02:57:37.216Z,0.00
2018-11-07T02:58:37.200Z,0.00
2018-11-07T02:59:37.174Z,0.00
2018-11-07T03:00:37.153Z,0.00
2018-11-07T03:01:37.139Z,0.00
2018-11-07T03:02:37.107Z,0.00
2018-11-07T03:03:37.094Z,0.00
2018-11-07T03:04:37.068Z,0.00
2018-11-07T03:05:37.064Z,0.00
2018-11-07T03:06:37.016Z,0.00
2018-11-07T03:07:36.996Z,0.00
2018-11-07T03:08:36.974Z,0.00
2018-11-07T03:09:36.956Z,0.00
2018-11-07T03:10:37.057Z,0.00
2018-11-07T03:11:36.913Z,0.00
2018-11-07T03:12:36.905Z,0.00
2018-11-07T03:13:36.869Z,0.00
2018-11-07T03:14:46.366Z,0.00
2018-11-07T03:15:36.829Z,0.00
2018-11-07T03:16:36.808Z,0.00
2018-11-07T03:17:36.792Z,0.00
2018-11-07T03:18:36.760Z,0.00
2018-11-07T03:19:36.727Z,0.00
2018-11-07T03:20:36.713Z,0.00
2018-11-07T03:21:36.690Z,0.00
2018-11-07T03:22:36.689Z,0.00
2018-11-07T03:23:36.640Z,0.00
2018-11-07T03:24:36.638Z,0.00
2018-11-07T03:25:36.590Z,0.00
2018-11-07T03:26:36.570Z,0.00
2018-11-07T03:27:36.557Z,0.00
2018-11-07T03:28:36.538Z,0.00
2018-11-07T03:29:36.513Z,0.00
2018-11-07T03:30:36.478Z,0.00
2018-11-07T03:31:36.460Z,0.00
2018-11-07T03:32:36.425Z,0.00
2018-11-07T03:33:36.422Z,0.00
2018-11-07T03:34:36.403Z,0.00
2018-11-07T03:35:36.373Z,0.00
2018-11-07T03:36:36.342Z,0.00
2018-11-07T03:37:36.319Z,0.00
2018-11-07T03:38:36.303Z,0.00
2018-11-07T03:39:36.291Z,0.00
2018-11-07T03:40:36.254Z,0.00
2018-11-07T03:41:36.226Z,0.00
2018-11-07T03:42:36.203Z,0.00
2018-11-07T03:43:36.184Z,0.00
2018-11-07T03:44:36.164Z,0.00
2018-11-07T03:45:36.159Z,0.00
2018-11-07T03:46:36.126Z,0.00
2018-11-07T03:47:36.088Z,0.00
2018-11-07T03:48:36.068Z,0.00
2018-11-07T03:49:36.052Z,0.00
2018-11-07T03:50:36.030Z,0.00
2018-11-07T03:51:36.001Z,0.00
2018-11-07T03:52:35.975Z,0.00
2018-11-07T03:53:35.956Z,0.00
2018-11-07T03:54:35.934Z,0.00
2018-11-07T03:55:35.908Z,0.00
2018-11-07T03:56:35.886Z,0.00
2018-11-07T03:57:35.870Z,0.00
2018-11-07T03:58:35.834Z,0.00
2018-11-07T03:59:35.824Z,0.00
2018-11-07T04:00:35.791Z,0.00
2018-11-07T04:01:35.767Z,0.00
2018-11-07T04:02:35.753Z,0.00
2018-11-07T04:03:35.726Z,0.00
2018-11-07T04:04:35.701Z,0.00
2018-11-07T04:05:35.681Z,0.00
2018-11-07T04:06:35.658Z,0.00
2018-11-07T04:07:35.629Z,0.00
2018-11-07T04:08:35.615Z,0.00
2018-11-07T04:09:35.581Z,0.00
2018-11-07T04:10:35.566Z,0.00
2018-11-07T04:11:35.533Z,0.00
2018-11-07T04:12:35.511Z,0.00
2018-11-07T04:13:35.489Z,0.00
2018-11-07T04:14:35.464Z,0.00
2018-11-07T04:15:35.454Z,0.00
2018-11-07T04:16:35.431Z,0.00
2018-11-07T04:17:35.401Z,0.00
2018-11-07T04:18:35.378Z,0.00
2018-11-07T04:19:35.354Z,0.00
2018-11-07T04:20:35.336Z,0.00
2018-11-07T04:21:35.314Z,0.00
2018-11-07T04:22:35.282Z,0.00
2018-11-07T04:23:35.260Z,0.00
2018-11-07T04:24:35.237Z,0.00
2018-11-07T04:25:35.212Z,0.00
2018-11-07T04:26:35.197Z,0.00
2018-11-07T04:27:35.175Z,0.00
2018-11-07T04:28:35.145Z,0.00
2018-11-07T04:29:35.123Z,0.00
2018-11-07T04:30:35.104Z,0.00
2018-11-07T04:31:35.074Z,0.00
2018-11-07T04:32:35.052Z,0.00
2018-11-07T04:33:35.033Z,0.00
2018-11-07T04:34:35.005Z,0.00
2018-11-07T04:35:34.998Z,0.00
2018-11-07T04:36:34.960Z,0.00
2018-11-07T04:37:34.938Z,0.00
2018-11-07T04:38:34.915Z,0.00
2018-11-07T04:39:34.892Z,0.00
2018-11-07T04:40:34.870Z,0.00
2018-11-07T04:41:34.848Z,0.00
2018-11-07T04:42:34.819Z,0.00
2018-11-07T04:43:34.797Z,0.00
2018-11-07T04:44:34.775Z,0.00
2018-11-07T04:45:34.762Z,0.00
2018-11-07T04:46:34.733Z,0.00
2018-11-07T04:47:34.705Z,0.00
2018-11-07T04:48:34.691Z,0.00
2018-11-07T04:49:34.675Z,0.00
2018-11-07T04:50:34.635Z,0.00
2018-11-07T04:51:34.616Z,0.00
2018-11-07T04:52:34.588Z,0.00
2018-11-07T04:53:34.568Z,0.00
2018-11-07T04:54:34.542Z,0.00
2018-11-07T04:55:34.516Z,0.00
2018-11-07T04:56:34.507Z,0.00
2018-11-07T04:57:34.479Z,0.00
2018-11-07T04:58:34.455Z,0.00
2018-11-07T04:59:34.431Z,0.00
2018-11-07T05:00:34.402Z,0.00
2018-11-07T05:01:34.380Z,0.00
2018-11-07T05:02:34.364Z,0.00
2018-11-07T05:03:34.333Z,0.00
2018-11-07T05:04:34.307Z,0.00
2018-11-07T05:05:34.288Z,0.00
2018-11-07T05:06:34.261Z,0.00
2018-11-07T05:07:34.238Z,0.00
2018-11-07T05:08:34.263Z,0.00
2018-11-07T05:09:34.200Z,0.00
2018-11-07T05:10:34.172Z,0.00
2018-11-07T05:11:34.145Z,0.00
2018-11-07T05:12:34.136Z,0.00
2018-11-07T05:13:34.100Z,0.00
2018-11-07T05:14:34.082Z,0.00
2018-11-07T05:15:34.054Z,0.00
2018-11-07T05:16:34.034Z,0.00
2018-11-07T05:17:34.017Z,0.00
2018-11-07T05:18:33.989Z,0.00
2018-11-07T05:19:33.973Z,0.00
2018-11-07T05:20:33.929Z,0.00
2018-11-07T05:21:33.917Z,0.00
2018-11-07T05:22:33.887Z,0.00
2018-11-07T05:23:33.878Z,0.00
2018-11-07T05:24:33.838Z,0.00
2018-11-07T05:25:33.820Z,0.00
2018-11-07T05:26:33.790Z,0.00
2018-11-07T05:27:33.772Z,0.00
2018-11-07T05:28:33.756Z,0.00
2018-11-07T05:29:33.726Z,0.00
2018-11-07T05:30:33.701Z,0.00
2018-11-07T05:31:33.698Z,0.00
2018-11-07T05:32:33.662Z,0.00
2018-11-07T05:33:33.633Z,0.00
2018-11-07T05:34:33.608Z,0.00
2018-11-07T05:35:33.591Z,0.00
2018-11-07T05:36:33.563Z,0.00
2018-11-07T05:37:33.541Z,0.00
2018-11-07T05:38:33.515Z,0.00
2018-11-07T05:39:33.496Z,0.00
2018-11-07T05:40:33.467Z,0.00
2018-11-07T05:41:33.457Z,0.00
2018-11-07T05:42:33.425Z,0.00
2018-11-07T05:43:33.406Z,0.00
2018-11-07T05:44:33.373Z,0.00
2018-11-07T05:45:33.358Z,0.00
2018-11-07T05:46:33.329Z,0.00
2018-11-07T05:47:33.307Z,0.00
2018-11-07T05:48:33.288Z,0.00
2018-11-07T05:49:33.255Z,0.00
2018-11-07T05:50:33.230Z,0.00
2018-11-07T05:51:33.223Z,4.00
2018-11-07T05:52:33.217Z,4.00
2018-11-07T05:53:33.169Z,4.00
2018-11-07T05:54:33.150Z,0.00
2018-11-07T05:55:33.111Z,4.00
2018-11-07T05:56:33.098Z,4.00
2018-11-07T05:57:33.079Z,4.00
2018-11-07T05:58:33.052Z,8.00
2018-11-07T05:59:33.033Z,8.00
2018-11-07T06:00:33.001Z,8.00
2018-11-07T06:01:32.979Z,12.00
2018-11-07T06:02:32.959Z,12.00
2018-11-07T06:03:32.928Z,16.00
2018-11-07T06:04:32.908Z,20.00
2018-11-07T06:05:32.882Z,24.00
2018-11-07T06:06:32.860Z,28.00
2018-11-07T06:07:32.836Z,32.00
2018-11-07T06:08:32.808Z,40.00
2018-11-07T06:09:32.787Z,44.00
2018-11-07T06:10:32.768Z,52.00
2018-11-07T06:11:32.736Z,60.00
2018-11-07T06:12:32.720Z,68.00
2018-11-07T06:13:32.697Z,72.00
2018-11-07T06:14:32.672Z,84.00
2018-11-07T06:15:32.647Z,92.00
2018-11-07T06:16:32.631Z,104.00
2018-11-07T06:17:32.596Z,120.00
2018-11-07T06:18:32.579Z,132.00
2018-11-07T06:19:32.557Z,148.00
2018-11-07T06:20:32.532Z,164.00
2018-11-07T06:21:32.502Z,180.00
2018-11-07T06:22:32.480Z,196.00
2018-11-07T06:23:32.470Z,216.00
2018-11-07T06:24:32.523Z,232.00
2018-11-07T06:25:32.411Z,256.00
2018-11-07T06:26:32.391Z,272.00
2018-11-07T06:27:32.372Z,296.00
2018-11-07T06:28:32.361Z,332.00
2018-11-07T06:29:32.327Z,384.00
2018-11-07T06:30:32.292Z,432.00
2018-11-07T06:31:32.276Z,500.00
2018-11-07T06:32:32.257Z,572.00
2018-11-07T06:33:32.229Z,624.00
2018-11-07T06:34:32.204Z,660.00
2018-11-07T06:35:32.179Z,752.00
2018-11-07T06:36:32.156Z,844.00
2018-11-07T06:37:32.127Z,904.00
2018-11-07T06:38:32.108Z,972.00
2018-11-07T06:39:32.079Z,1044.00
2018-11-07T06:40:32.057Z,1084.00
2018-11-07T06:41:32.038Z,1140.00
2018-11-07T06:42:32.015Z,1180.00
2018-11-07T06:43:31.996Z,1224.00
2018-11-07T06:44:32.019Z,1236.00
2018-11-07T06:45:31.945Z,1276.00
2018-11-07T06:46:31.920Z,1308.00
2018-11-07T06:47:31.897Z,1356.00
2018-11-07T06:48:31.878Z,1352.00
2018-11-07T06:49:31.858Z,1384.00
2018-11-07T06:50:31.826Z,1444.00
2018-11-07T06:51:31.807Z,1464.00
2018-11-07T06:52:31.781Z,1540.00
2018-11-07T06:53:31.758Z,1600.00
2018-11-07T06:54:31.740Z,1672.00
2018-11-07T06:55:31.720Z,1772.00
2018-11-07T06:56:31.695Z,1932.00
2018-11-07T06:57:31.664Z,2172.00
2018-11-07T06:58:31.651Z,2412.00
2018-11-07T06:59:31.626Z,2572.00
2018-11-07T07:00:31.607Z,2700.00
2018-11-07T07:01:31.648Z,2756.00
2018-11-07T07:02:31.556Z,3028.00
2018-11-07T07:03:31.561Z,2996.00
2018-11-07T07:04:31.514Z,2972.00
2018-11-07T07:05:31.488Z,3068.00
2018-11-07T07:06:31.462Z,2980.00
2018-11-07T07:07:31.451Z,2936.00
2018-11-07T07:08:31.417Z,2712.00
2018-11-07T07:09:31.398Z,2704.00
2018-11-07T07:10:31.394Z,2620.00
2018-11-07T07:11:31.347Z,2612.00
2018-11-07T07:12:31.353Z,2648.00
2018-11-07T07:13:31.308Z,2748.00
2018-11-07T07:14:31.286Z,2888.00
2018-11-07T07:15:31.264Z,2952.00
2018-11-07T07:16:31.240Z,2956.00
2018-11-07T07:17:31.267Z,3000.00
2018-11-07T07:18:31.206Z,3176.00
2018-11-07T07:19:31.177Z,3296.00
2018-11-07T07:20:31.144Z,3316.00
2018-11-07T07:21:31.141Z,3260.00
2018-11-07T07:22:31.113Z,3180.00
2018-11-07T07:23:31.080Z,3088.00
2018-11-07T07:24:31.063Z,2948.00
2018-11-07T07:25:31.043Z,2920.00
2018-11-07T07:26:31.016Z,2576.00
2018-11-07T07:27:30.984Z,2344.00
2018-11-07T07:28:30.968Z,2300.00
2018-11-07T07:29:30.945Z,2132.00
2018-11-07T07:30:30.935Z,2048.00
2018-11-07T07:31:30.907Z,1996.00
2018-11-07T07:32:30.895Z,1968.00
2018-11-07T07:33:30.952Z,1872.00
2018-11-07T07:34:30.860Z,1788.00
2018-11-07T07:35:30.813Z,1772.00
2018-11-07T07:36:30.789Z,1888.00
2018-11-07T07:37:30.766Z,1980.00
2018-11-07T07:38:30.763Z,1868.00
2018-11-07T07:39:30.721Z,1956.00
2018-11-07T07:40:30.699Z,2176.00
2018-11-07T07:41:30.696Z,2588.00
2018-11-07T07:42:30.673Z,2760.00
2018-11-07T07:43:30.637Z,2576.00
2018-11-07T07:44:30.621Z,2984.00
2018-11-07T07:45:30.622Z,3076.00
2018-11-07T07:46:30.560Z,3368.00
2018-11-07T07:47:30.544Z,3032.00
2018-11-07T07:48:30.515Z,2924.00
2018-11-07T07:49:30.516Z,2532.00
2018-11-07T07:50:30.478Z,2728.00
2018-11-07T07:51:30.465Z,2608.00
2018-11-07T07:52:30.468Z,3148.00
2018-11-07T07:53:30.418Z,3624.00
2018-11-07T07:54:30.388Z,3312.00
2018-11-07T07:55:30.375Z,3576.00
2018-11-07T07:56:30.343Z,3908.00
2018-11-07T07:57:30.324Z,4008.00
2018-11-07T07:58:30.308Z,4320.00
2018-11-07T07:59:30.295Z,4580.00
2018-11-07T08:00:30.273Z,4752.00
2018-11-07T08:01:30.228Z,4900.00
2018-11-07T08:02:30.219Z,4996.00
2018-11-07T08:03:30.187Z,5296.00
2018-11-07T08:04:30.166Z,5340.00
2018-11-07T08:05:30.151Z,6208.00
2018-11-07T08:06:30.151Z,6736.00
2018-11-07T08:07:30.104Z,7204.00
2018-11-07T08:08:30.081Z,7588.00
2018-11-07T08:09:30.062Z,7908.00
2018-11-07T08:10:30.068Z,8792.00
2018-11-07T08:11:30.040Z,9596.00
2018-11-07T08:12:29.995Z,10672.00
2018-11-07T08:13:30.031Z,12376.00
2018-11-07T08:14:29.960Z,14528.00
2018-11-07T08:15:29.944Z,15904.00
2018-11-07T08:16:29.918Z,15776.00
2018-11-07T08:17:29.893Z,14928.00
2018-11-07T08:18:29.870Z,14892.00
2018-11-07T08:19:29.860Z,14584.00
2018-11-07T08:20:29.856Z,13316.00
2018-11-07T08:21:29.821Z,12196.00
2018-11-07T08:22:29.792Z,11148.00
2018-11-07T08:23:29.779Z,10468.00
2018-11-07T08:24:29.754Z,10160.00
2018-11-07T08:25:29.741Z,10064.00
2018-11-07T08:26:29.711Z,9972.00
2018-11-07T08:27:29.693Z,9740.00
2018-11-07T08:28:29.681Z,8356.00
2018-11-07T08:29:29.668Z,6764.00
2018-11-07T08:30:29.646Z,7348.00
2018-11-07T08:31:29.626Z,7580.00
2018-11-07T08:32:29.610Z,8808.00
2018-11-07T08:33:29.600Z,9872.00
2018-11-07T08:34:29.571Z,9912.00
2018-11-07T08:35:29.553Z,11220.00
2018-11-07T08:36:29.530Z,11988.00
2018-11-07T08:37:29.511Z,10812.00
2018-11-07T08:38:29.496Z,8588.00
2018-11-07T08:39:29.482Z,8380.00
2018-11-07T08:40:29.459Z,9732.00
2018-11-07T08:41:29.440Z,9160.00
2018-11-07T08:42:29.468Z,7588.00
2018-11-07T08:43:29.414Z,7476.00
2018-11-07T08:44:29.382Z,8936.00
2018-11-07T08:45:29.380Z,9796.00
2018-11-07T08:46:29.350Z,10928.00
2018-11-07T08:47:29.334Z,13468.00
2018-11-07T08:48:29.344Z,14368.00
2018-11-07T08:49:29.305Z,16224.00
2018-11-07T08:50:29.286Z,18016.00
2018-11-07T08:51:29.265Z,13428.00
2018-11-07T08:52:29.249Z,11352.00
2018-11-07T08:53:29.233Z,14360.00
2018-11-07T08:54:29.253Z,12568.00
2018-11-07T08:55:29.201Z,9256.00
2018-11-07T08:56:29.189Z,8224.00
2018-11-07T08:57:29.162Z,8324.00
2018-11-07T08:58:29.159Z,7652.00
2018-11-07T08:59:29.125Z,8776.00
2018-11-07T09:00:29.108Z,6960.00
2018-11-07T09:01:29.137Z,5836.00
2018-11-07T09:02:29.079Z,5572.00
2018-11-07T09:03:29.060Z,6036.00
2018-11-07T09:04:29.040Z,5652.00
2018-11-07T09:05:29.027Z,5144.00
2018-11-07T09:06:29.009Z,4700.00
2018-11-07T09:07:28.992Z,7184.00
2018-11-07T09:08:28.970Z,12292.00
2018-11-07T09:09:28.950Z,9544.00
2018-11-07T09:10:28.928Z,6272.00
2018-11-07T09:11:28.922Z,5048.00
2018-11-07T09:12:28.903Z,4644.00
2018-11-07T09:13:28.881Z,3936.00
2018-11-07T09:14:28.871Z,5748.00
2018-11-07T09:15:28.851Z,9028.00
2018-11-07T09:16:28.831Z,10404.00
2018-11-07T09:17:28.822Z,9496.00
2018-11-07T09:18:28.790Z,6884.00
2018-11-07T09:19:28.777Z,5964.00
2018-11-07T09:20:28.758Z,6340.00
2018-11-07T09:21:28.736Z,7744.00
2018-11-07T09:22:28.723Z,9532.00
2018-11-07T09:23:28.706Z,8860.00
2018-11-07T09:24:28.736Z,10740.00
2018-11-07T09:25:28.690Z,11288.00
2018-11-07T09:26:28.720Z,14208.00
2018-11-07T09:27:28.707Z,18720.00
2018-11-07T09:28:28.678Z,20544.00
2018-11-07T09:29:28.611Z,16608.00
2018-11-07T09:30:28.585Z,14896.00
2018-11-07T09:31:28.585Z,12540.00
2018-11-07T09:32:28.562Z,14464.00
2018-11-07T09:33:28.534Z,15196.00
2018-11-07T09:34:28.506Z,16864.00
2018-11-07T09:35:28.496Z,21792.00
2018-11-07T09:36:28.479Z,26688.00
2018-11-07T09:37:28.453Z,30208.00
2018-11-07T09:38:28.454Z,33536.00
2018-11-07T09:39:28.474Z,33280.00
2018-11-07T09:40:28.412Z,33472.00
2018-11-07T09:41:28.397Z,34048.00
2018-11-07T09:42:28.382Z,34688.00
2018-11-07T09:43:28.361Z,35552.00
2018-11-07T09:44:28.361Z,36320.00
2018-11-07T09:45:28.322Z,36672.00
2018-11-07T09:46:28.316Z,36896.00
2018-11-07T09:47:28.328Z,37024.00
2018-11-07T09:48:28.278Z,37856.00
2018-11-07T09:49:28.263Z,38560.00
2018-11-07T09:50:28.250Z,39264.00
2018-11-07T09:51:28.263Z,40000.00
2018-11-07T09:52:28.228Z,40672.00
2018-11-07T09:53:28.210Z,40544.00
2018-11-07T09:54:28.185Z,40736.00
2018-11-07T09:55:28.177Z,41504.00
2018-11-07T09:56:28.156Z,41504.00
2018-11-07T09:57:28.148Z,41504.00
2018-11-07T09:58:28.132Z,41600.00
2018-11-07T09:59:28.132Z,42144.00
2018-11-07T10:00:28.105Z,42624.00
2018-11-07T10:01:28.116Z,42976.00
2018-11-07T10:02:28.075Z,43072.00
2018-11-07T10:03:28.056Z,42880.00
2018-11-07T10:04:28.052Z,43328.00
2018-11-07T10:05:28.077Z,44064.00
2018-11-07T10:06:28.059Z,44384.00
2018-11-07T10:07:28.005Z,44352.00
2018-11-07T10:08:27.992Z,44032.00
2018-11-07T10:09:27.989Z,44256.00
2018-11-07T10:10:27.969Z,43968.00
2018-11-07T10:11:27.960Z,43360.00
2018-11-07T10:12:28.026Z,42784.00
2018-11-07T10:13:27.944Z,42048.00
2018-11-07T10:14:27.925Z,41760.00
2018-11-07T10:15:27.909Z,41696.00
2018-11-07T10:16:27.912Z,40512.00
2018-11-07T10:17:27.893Z,40224.00
2018-11-07T10:18:27.884Z,39840.00
2018-11-07T10:19:27.869Z,40736.00
2018-11-07T10:20:27.878Z,41824.00
2018-11-07T10:21:27.851Z,41984.00
2018-11-07T10:22:27.832Z,40608.00
2018-11-07T10:23:27.835Z,38880.00
2018-11-07T10:24:27.807Z,38080.00
2018-11-07T10:25:27.797Z,37760.00
2018-11-07T10:26:27.784Z,37024.00
2018-11-07T10:27:28.042Z,35232.00
2018-11-07T10:28:27.973Z,33536.00
2018-11-07T10:29:28.025Z,32256.00
2018-11-07T10:30:27.830Z,31232.00
2018-11-07T10:31:27.740Z,32160.00
2018-11-07T10:32:27.727Z,31936.00
2018-11-07T10:33:27.717Z,30720.00
2018-11-07T10:34:27.721Z,29280.00
2018-11-07T10:35:27.692Z,27424.00
2018-11-07T10:36:27.686Z,25728.00
2018-11-07T10:37:32.369Z,24224.00
2018-11-07T10:38:27.742Z,23424.00
2018-11-07T10:39:27.653Z,22624.00
2018-11-07T10:40:27.711Z,21280.00
2018-11-07T10:41:27.638Z,20000.00
2018-11-07T10:42:27.631Z,19136.00
2018-11-07T10:43:27.615Z,18464.00
2018-11-07T10:44:27.640Z,17888.00
2018-11-07T10:45:27.609Z,16384.00
2018-11-07T10:46:27.587Z,14740.00
2018-11-07T10:47:27.587Z,13960.00
2018-11-07T10:48:27.586Z,13544.00
2018-11-07T10:49:27.564Z,13152.00
2018-11-07T10:50:27.561Z,12560.00
2018-11-07T10:51:27.538Z,12088.00
2018-11-07T10:52:27.529Z,11732.00
2018-11-07T10:53:27.550Z,11460.00
2018-11-07T10:54:27.513Z,11172.00
2018-11-07T10:55:27.503Z,10996.00
2018-11-07T10:56:27.496Z,10884.00
2018-11-07T10:57:27.491Z,10668.00
2018-11-07T10:58:27.487Z,10504.00
2018-11-07T10:59:27.471Z,10368.00
2018-11-07T11:00:27.481Z,10288.00
2018-11-07T11:01:27.498Z,10160.00
2018-11-07T11:02:27.447Z,10080.00
2018-11-07T11:03:27.435Z,10008.00
2018-11-07T11:04:27.428Z,9964.00
2018-11-07T11:05:27.435Z,9892.00
2018-11-07T11:06:27.412Z,9792.00
2018-11-07T11:07:27.402Z,9780.00
2018-11-07T11:08:27.393Z,9712.00
2018-11-07T11:09:27.377Z,9656.00
2018-11-07T11:10:27.370Z,9592.00
2018-11-07T11:11:27.410Z,9572.00
2018-11-07T11:12:27.360Z,9552.00
2018-11-07T11:13:27.358Z,9496.00
2018-11-07T11:14:27.335Z,9384.00
2018-11-07T11:15:27.361Z,9396.00
2018-11-07T11:16:27.326Z,9432.00
2018-11-07T11:17:27.387Z,9460.00
2018-11-07T11:18:27.310Z,9432.00
2018-11-07T11:19:27.339Z,9428.00
2018-11-07T11:20:27.293Z,9404.00
2018-11-07T11:21:27.289Z,9380.00
2018-11-07T11:22:27.306Z,9424.00
2018-11-07T11:23:27.266Z,9492.00
2018-11-07T11:24:27.259Z,9784.00
2018-11-07T11:25:27.246Z,6064.00
2018-11-07T11:26:27.250Z,5628.00
2018-11-07T11:27:27.342Z,5384.00
2018-11-07T11:28:27.229Z,5484.00
2018-11-07T11:29:27.212Z,6632.00
2018-11-07T11:30:27.212Z,7868.00
2018-11-07T11:31:27.242Z,9580.00
2018-11-07T11:32:27.185Z,11028.00
2018-11-07T11:33:27.189Z,12204.00
2018-11-07T11:34:27.231Z,12948.00
2018-11-07T11:35:27.235Z,13616.00
2018-11-07T11:36:27.159Z,14204.00
2018-11-07T11:37:27.147Z,13980.00
2018-11-07T11:38:27.138Z,14608.00
2018-11-07T11:39:27.147Z,15400.00
2018-11-07T11:40:27.130Z,15044.00
2018-11-07T11:41:27.102Z,16080.00
2018-11-07T11:42:27.093Z,14588.00
2018-11-07T11:43:27.080Z,18720.00
2018-11-07T11:44:27.071Z,14980.00
2018-11-07T11:45:27.066Z,14380.00
2018-11-07T11:46:27.047Z,17344.00
2018-11-07T11:47:27.040Z,15392.00
2018-11-07T11:48:27.032Z,13884.00
2018-11-07T11:49:27.025Z,12940.00
2018-11-07T11:50:27.009Z,11764.00
2018-11-07T11:51:27.002Z,10908.00
2018-11-07T11:52:26.983Z,10448.00
2018-11-07T11:53:27.015Z,10176.00
2018-11-07T11:54:26.970Z,9988.00
2018-11-07T11:55:26.967Z,9888.00
2018-11-07T11:56:26.973Z,9700.00
2018-11-07T11:57:26.944Z,9600.00
2018-11-07T11:58:26.944Z,9364.00
2018-11-07T11:59:27.070Z,9096.00
2018-11-07T12:00:26.953Z,8952.00
2018-11-07T12:01:26.906Z,8920.00
2018-11-07T12:02:26.897Z,8824.00
2018-11-07T12:03:26.887Z,8700.00
2018-11-07T12:04:26.880Z,8488.00
2018-11-07T12:05:26.871Z,8356.00
2018-11-07T12:06:26.869Z,8280.00
2018-11-07T12:07:26.850Z,8284.00
2018-11-07T12:08:26.936Z,8316.00
2018-11-07T12:09:26.834Z,8316.00
2018-11-07T12:10:26.833Z,8204.00
2018-11-07T12:11:26.866Z,8188.00
2018-11-07T12:12:26.815Z,8192.00
2018-11-07T12:13:26.903Z,7636.00
2018-11-07T12:14:26.798Z,7568.00
2018-11-07T12:15:26.903Z,8108.00
2018-11-07T12:16:26.776Z,7980.00
2018-11-07T12:17:26.767Z,7812.00
2018-11-07T12:18:26.796Z,7636.00
2018-11-07T12:19:26.796Z,7372.00
2018-11-07T12:20:26.757Z,7416.00
2018-11-07T12:21:26.815Z,7364.00
2018-11-07T12:22:26.745Z,7348.00
2018-11-07T12:23:26.719Z,7320.00
2018-11-07T12:24:26.709Z,7284.00
2018-11-07T12:25:26.716Z,7252.00
2018-11-07T12:26:26.713Z,7264.00
2018-11-07T12:27:26.690Z,7236.00
2018-11-07T12:28:26.691Z,7220.00
2018-11-07T12:29:26.671Z,7212.00
2018-11-07T12:30:26.681Z,7188.00
2018-11-07T12:31:26.661Z,7140.00
2018-11-07T12:32:26.657Z,7108.00
2018-11-07T12:33:26.648Z,7108.00
2018-11-07T12:34:26.641Z,7100.00
2018-11-07T12:35:26.625Z,7092.00